Time;durP1;ratioP1;P1;durP2;ratioP2;P2;SDS_P1;SDS_P2;PMS_P1;PMS_P2;Temp;Humidity;BMP_temperature;BMP_pressure;BME280_temperature;BME280_humidity;BME280_pressure;Samples;Min_cycle;Max_cycle;Signal;HPM_P1;HPM_P2
2022/12/28 00:01:18;;;;;;;6.88;3.55;;;;;;;5.47;100.00;101605.25;4994016;28;20245;-68
2022/12/28 00:03:44;;;;;;;6.07;3.78;;;;;;;5.48;100.00;101617.38;4992061;28;20303;-68
2022/12/28 00:06:11;;;;;;;5.93;3.75;;;;;;;5.48;99.91;101609.63;4998480;28;20036;-68
2022/12/28 00:08:36;;;;;;;7.00;4.05;;;;;;;5.50;100.00;101609.69;4988370;28;20026;-68
2022/12/28 00:11:04;;;;;;;7.65;3.78;;;;;;;5.50;99.83;101597.66;4989909;28;20352;-68
2022/12/28 00:13:31;;;;;;;8.93;3.90;;;;;;;5.51;99.99;101593.41;4992709;28;20062;-68
2022/12/28 00:15:57;;;;;;;5.75;3.67;;;;;;;5.52;99.61;101582.28;5004157;28;20022;-68
2022/12/28 00:18:22;;;;;;;7.72;3.95;;;;;;;5.53;99.81;101571.09;5001221;28;20053;-68
2022/12/28 00:21:00;;;;;;;7.40;3.75;;;;;;;5.56;99.86;101553.16;5005147;28;20022;-68
2022/12/28 00:23:26;;;;;;;8.65;3.60;;;;;;;5.55;99.37;101549.72;4986571;28;20106;-68
2022/12/28 00:25:52;;;;;;;8.13;3.90;;;;;;;5.56;99.24;101537.66;4983428;28;20026;-68
2022/12/28 00:28:18;;;;;;;6.68;3.83;;;;;;;5.54;99.74;101524.66;4987109;28;20331;-68
2022/12/28 00:30:43;;;;;;;7.18;3.70;;;;;;;5.53;99.37;101517.72;4983233;28;20061;-68
2022/12/28 00:33:08;;;;;;;6.80;3.47;;;;;;;5.55;99.34;101534.19;4982746;28;20023;-68
2022/12/28 00:35:34;;;;;;;8.57;3.90;;;;;;;5.54;99.14;101526.34;4982878;28;20069;-68
2022/12/28 00:37:59;;;;;;;8.32;4.30;;;;;;;5.55;99.51;101529.03;4982974;28;20050;-68
2022/12/28 00:40:24;;;;;;;7.90;4.10;;;;;;;5.57;99.70;101518.78;4983157;28;20022;-68
2022/12/28 00:42:49;;;;;;;6.72;3.58;;;;;;;5.61;99.32;101512.97;4993276;28;20026;-68
2022/12/28 00:45:15;;;;;;;9.70;4.00;;;;;;;5.63;99.03;101518.22;4990508;28;20027;-68
2022/12/28 00:47:40;;;;;;;6.75;3.67;;;;;;;5.65;99.17;101521.75;4997786;28;20189;-68
2022/12/28 00:50:06;;;;;;;8.32;4.10;;;;;;;5.66;98.91;101506.38;4990641;28;20022;-68
2022/12/28 00:52:31;;;;;;;8.15;3.90;;;;;;;5.66;99.00;101506.38;4999609;28;20345;-68
2022/12/28 00:54:56;;;;;;;7.57;3.85;;;;;;;5.67;99.24;101497.78;4998306;28;20038;-68
2022/12/28 00:57:22;;;;;;;8.57;4.38;;;;;;;5.69;99.28;101488.44;4989242;28;20038;-68
2022/12/28 00:59:47;;;;;;;7.60;4.18;;;;;;;5.71;99.25;101485.91;4996911;28;20030;-68
2022/12/28 01:02:12;;;;;;;7.72;4.35;;;;;;;5.72;99.15;101479.91;5005083;28;20189;-68
2022/12/28 01:04:37;;;;;;;8.30;4.35;;;;;;;5.73;99.56;101477.41;4989117;28;20033;-68
2022/12/28 01:07:03;;;;;;;9.43;4.15;;;;;;;5.76;99.11;101476.69;4994582;28;20086;-68
2022/12/28 01:09:28;;;;;;;7.85;4.22;;;;;;;5.79;98.72;101475.97;4986124;28;20022;-68
2022/12/28 01:11:53;;;;;;;6.63;3.97;;;;;;;5.79;98.52;101468.22;4992631;28;20024;-68
2022/12/28 01:14:19;;;;;;;9.68;4.28;;;;;;;5.80;98.48;101467.41;5002248;28;20014;-68
2022/12/28 01:16:44;;;;;;;8.18;4.05;;;;;;;5.81;98.81;101459.75;4999857;28;20026;-68
2022/12/28 01:19:13;;;;;;;7.10;4.20;;;;;;;5.82;98.30;101471.88;4999703;28;20018;-68
2022/12/28 01:21:39;;;;;;;8.40;4.13;;;;;;;5.82;98.77;101470.97;4987615;28;20030;-68
2022/12/28 01:24:06;;;;;;;7.45;3.95;;;;;;;5.84;98.50;101444.38;4996539;28;20165;-68
2022/12/28 01:26:32;;;;;;;8.20;3.97;;;;;;;5.86;98.49;101449.63;4997497;28;20023;-67
2022/12/28 01:28:57;;;;;;;7.30;4.00;;;;;;;5.87;98.30;101462.63;4993790;28;20025;-67
2022/12/28 01:31:23;;;;;;;10.18;4.53;;;;;;;5.88;98.29;101441.16;4998331;28;20041;-68
2022/12/28 01:33:48;;;;;;;9.63;4.32;;;;;;;5.90;98.55;101449.88;4991772;28;20038;-68
2022/12/28 01:36:16;;;;;;;7.15;3.97;;;;;;;5.92;98.20;101442.19;4992447;28;20086;-67
2022/12/28 01:38:42;;;;;;;6.32;3.60;;;;;;;5.93;98.09;101439.69;4992815;28;20038;-68
2022/12/28 01:41:10;;;;;;;9.48;3.72;;;;;;;5.95;98.48;101436.28;4998038;28;20040;-68
2022/12/28 01:43:39;;;;;;;7.97;3.83;;;;;;;5.98;98.32;101433.91;4996393;28;20288;-67
2022/12/28 01:46:06;;;;;;;;;;;;;;;6.04;98.61;101414.41;4992700;28;20065;-68
2022/12/28 01:48:34;;;;;;;5.78;3.08;;;;;;;6.03;97.76;101417.81;4992220;28;19909;-67
2022/12/28 01:51:00;;;;;;;9.18;3.85;;;;;;;6.04;98.19;101403.16;4990605;28;20046;-68
2022/12/28 01:53:25;;;;;;;8.00;4.00;;;;;;;6.04;98.03;101418.69;4985030;28;20128;-68
2022/12/28 01:55:51;;;;;;;8.00;3.58;;;;;;;6.06;98.38;101405.03;4984585;28;20355;-67
2022/12/28 01:58:21;;;;;;;8.15;3.75;;;;;;;6.07;97.96;101403.34;4981589;28;20046;-68
2022/12/28 02:00:47;;;;;;;9.30;3.88;;;;;;;6.09;97.82;101392.22;4988409;28;20160;-68
2022/12/28 02:03:26;;;;;;;5.82;3.50;;;;;;;6.12;98.51;101385.47;4996700;28;20093;-68
2022/12/28 02:05:54;;;;;;;9.30;4.20;;;;;;;6.16;98.09;101379.63;5003129;28;20150;-68
2022/12/28 02:08:37;;;;;;;7.22;3.67;;;;;;;6.16;98.30;101364.97;5002257;28;20012;-68
2022/12/28 02:11:04;;;;;;;6.25;3.53;;;;;;;6.18;98.18;101363.34;5001095;28;20030;-68
2022/12/28 02:13:30;;;;;;;6.70;3.50;;;;;;;6.22;97.92;101361.81;4993578;28;20281;-67
2022/12/28 02:15:56;;;;;;;8.50;3.90;;;;;;;6.26;97.72;101355.97;4982384;28;20026;-68
2022/12/28 02:18:24;;;;;;;7.07;3.60;;;;;;;6.26;97.94;101348.22;4981563;28;20070;-67
2022/12/28 02:21:23;;;;;;;8.40;3.47;;;;;;;6.29;97.95;101335.44;4986702;28;20014;-68
2022/12/28 02:24:24;;;;;;;8.45;3.72;;;;;;;6.34;97.36;101336.53;4993512;28;20018;-68
2022/12/28 02:27:22;;;;;;;6.72;3.65;;;;;;;6.36;98.12;101321.09;4997013;28;20240;-67
2022/12/28 02:30:04;;;;;;;6.70;3.72;;;;;;;6.36;98.57;101321.97;4988937;28;20042;-68
2022/12/28 02:32:59;;;;;;;7.75;3.50;;;;;;;6.38;98.62;101319.47;4988290;28;20022;-68
2022/12/28 02:35:31;;;;;;;8.07;3.50;;;;;;;6.37;99.12;101297.88;4996719;28;20332;-68
2022/12/28 02:38:03;;;;;;;5.30;3.25;;;;;;;6.36;99.70;101301.28;4986538;28;20062;-68
2022/12/28 02:40:34;;;;;;;8.55;3.63;;;;;;;6.36;100.00;101292.63;4996702;28;20276;-67
2022/12/28 02:43:01;;;;;;;7.80;3.78;;;;;;;6.37;100.00;101300.47;4998562;28;20026;-68
2022/12/28 02:51:33;;;;;;;7.63;3.95;;;;;;;6.34;100.00;101297.69;4998059;28;20092;-68
2022/12/28 02:56:06;;;;;;;6.65;3.58;;;;;;;6.32;100.00;101289.00;4995126;28;20018;-68
2022/12/28 02:57:17;;;;;;;7.45;3.72;;;;;;;6.31;100.00;101291.50;4988946;28;20041;-68
2022/12/28 03:00:04;;;;;;;6.65;3.78;;;;;;;6.30;100.00;101290.63;4994545;28;20069;-68
2022/12/28 03:03:04;;;;;;;6.68;3.55;;;;;;;6.29;100.00;101285.38;4992161;28;20022;-68
2022/12/28 03:08:54;;;;;;;9.68;3.92;;;;;;;6.28;100.00;101278.41;4994326;28;20022;-68
2022/12/28 03:11:27;;;;;;;6.68;3.72;;;;;;;6.24;100.00;101278.28;4995590;28;20030;-68
2022/12/28 03:14:01;;;;;;;7.35;3.95;;;;;;;6.25;100.00;101279.16;5003998;28;20025;-68
2022/12/28 03:16:28;;;;;;;7.47;3.78;;;;;;;6.24;100.00;101265.34;4989963;28;20065;-63
2022/12/28 03:32:59;;;;;;;8.50;4.13;;;;;;;6.29;100.00;101243.97;4992307;28;20069;-63
2022/12/28 03:35:37;;;;;;;6.80;4.10;;;;;;;6.28;100.00;101243.06;4988358;28;20174;-64
2022/12/28 03:38:03;;;;;;;9.05;4.55;;;;;;;6.30;100.00;101248.31;4992270;28;20022;-63
2022/12/28 03:40:47;;;;;;;7.20;4.32;;;;;;;6.30;100.00;101244.03;4988184;28;20030;-63
2022/12/28 03:43:42;;;;;;;6.93;4.18;;;;;;;6.31;100.00;101238.03;4998400;28;20022;-64
2022/12/28 03:46:17;;;;;;;8.10;4.53;;;;;;;6.33;100.00;101238.09;4999183;28;20081;-63
2022/12/28 03:48:44;;;;;;;7.55;4.43;;;;;;;6.35;100.00;101231.31;5000155;28;20308;-68
2022/12/28 03:51:13;;;;;;;7.72;4.55;;;;;;;6.35;100.00;101234.78;4988615;28;20201;-68
2022/12/28 03:53:44;;;;;;;7.57;4.65;;;;;;;6.37;100.00;101225.41;4983939;28;20114;-68
2022/12/28 03:56:19;;;;;;;8.48;4.55;;;;;;;6.39;100.00;101223.75;4984512;28;20245;-68
2022/12/28 03:58:45;;;;;;;7.72;4.28;;;;;;;6.42;100.00;101215.25;4977334;28;20074;-68
2022/12/28 04:01:11;;;;;;;8.20;4.40;;;;;;;6.44;100.00;101226.56;4990247;28;20027;-68
2022/12/28 04:03:36;;;;;;;8.45;4.10;;;;;;;6.47;100.00;101225.81;4988057;28;20238;-68
2022/12/28 04:06:03;;;;;;;8.45;4.22;;;;;;;6.50;100.00;101215.59;4993953;28;20113;-68
2022/12/28 04:08:28;;;;;;;8.65;4.70;;;;;;;6.52;100.00;101221.75;4992093;28;20082;-68
2022/12/28 04:10:54;;;;;;;9.93;4.70;;;;;;;6.54;100.00;101215.81;4995799;28;20140;-68
2022/12/28 04:13:19;;;;;;;7.97;4.30;;;;;;;6.56;100.00;101215.88;4984100;28;20015;-68
2022/12/28 04:15:54;;;;;;;7.35;4.28;;;;;;;6.59;100.00;101216.91;4987257;28;20026;-68
2022/12/28 04:18:20;;;;;;;8.02;4.28;;;;;;;6.63;100.00;101211.88;4983561;28;20034;-68
2022/12/28 04:20:45;;;;;;;7.38;3.97;;;;;;;6.64;100.00;101209.34;4982951;28;20336;-68
2022/12/28 04:23:10;;;;;;;7.97;4.07;;;;;;;6.68;100.00;101213.88;4991399;28;20025;-68
2022/12/28 04:25:35;;;;;;;10.65;4.40;;;;;;;6.71;100.00;101205.34;4992239;28;20026;-68
2022/12/28 04:28:01;;;;;;;7.05;4.13;;;;;;;6.73;100.00;101203.69;4998130;28;20042;-68
2022/12/28 04:30:26;;;;;;;8.10;4.10;;;;;;;6.76;100.00;101214.19;4987670;28;20076;-68
2022/12/28 04:32:54;;;;;;;7.45;3.80;;;;;;;6.79;100.00;101215.25;4988719;28;21339;-68
2022/12/28 04:35:19;;;;;;;8.05;4.47;;;;;;;6.83;100.00;101211.06;4988455;28;20041;-68
2022/12/28 04:37:44;;;;;;;7.47;4.30;;;;;;;6.85;100.00;101213.72;4991033;28;20022;-68
2022/12/28 04:40:10;;;;;;;7.60;4.10;;;;;;;6.87;100.00;101196.56;4986611;28;20036;-68
2022/12/28 04:42:35;;;;;;;7.20;4.28;;;;;;;6.90;100.00;101207.94;4996355;28;20209;-68
2022/12/28 04:45:00;;;;;;;6.75;3.80;;;;;;;6.93;100.00;101207.19;4989464;28;20030;-68
2022/12/28 04:47:26;;;;;;;7.25;3.97;;;;;;;6.96;100.00;101202.13;4996431;28;20062;-68
2022/12/28 04:49:52;;;;;;;8.25;4.07;;;;;;;6.96;100.00;101203.00;4990131;28;20033;-68
2022/12/28 04:52:17;;;;;;;7.88;4.35;;;;;;;6.96;100.00;101203.00;4993414;28;20018;-68
2022/12/28 04:54:42;;;;;;;8.45;4.53;;;;;;;6.96;100.00;101209.91;4999177;28;20109;-68
2022/12/28 04:57:08;;;;;;;7.55;4.10;;;;;;;6.96;100.00;101202.13;4987929;28;20018;-68
2022/12/28 04:59:33;;;;;;;6.72;4.00;;;;;;;6.97;100.00;101206.50;4994086;28;20101;-69
2022/12/28 05:01:58;;;;;;;8.15;4.43;;;;;;;6.97;100.00;101197.03;4999698;28;20097;-68
2022/12/28 05:04:23;;;;;;;7.90;4.20;;;;;;;7.00;100.00;101195.41;4995014;28;20024;-68
2022/12/28 05:06:49;;;;;;;7.93;4.72;;;;;;;7.00;100.00;101198.00;4996821;28;20022;-68
2022/12/28 05:09:14;;;;;;;7.25;4.80;;;;;;;7.03;100.00;101198.13;4992535;28;20026;-68
2022/12/28 05:11:39;;;;;;;6.85;4.32;;;;;;;7.03;100.00;101190.34;4992057;28;20018;-68
2022/12/28 05:14:04;;;;;;;8.20;4.10;;;;;;;7.04;100.00;101195.59;4990367;28;20030;-68
2022/12/28 05:16:30;;;;;;;7.13;4.53;;;;;;;7.04;100.00;101187.81;4992916;28;20026;-68
2022/12/28 05:18:56;;;;;;;9.20;4.32;;;;;;;7.05;100.00;101191.28;4994109;28;20029;-69
2022/12/28 05:21:24;;;;;;;7.18;4.30;;;;;;;7.04;100.00;101193.00;4997268;28;20034;-69
2022/12/28 05:23:50;;;;;;;7.65;4.18;;;;;;;7.06;100.00;101193.06;4984710;28;20026;-69
2022/12/28 05:26:18;;;;;;;8.13;4.30;;;;;;;7.05;100.00;101192.16;4993027;28;20040;-69
2022/12/28 05:28:44;;;;;;;7.75;4.00;;;;;;;7.04;100.00;101193.00;4996198;28;20015;-69
2022/12/28 05:31:13;;;;;;;8.02;4.25;;;;;;;7.05;100.00;101186.97;4993899;28;20129;-69
2022/12/28 05:33:38;;;;;;;6.90;4.35;;;;;;;7.07;100.00;101187.94;4999220;28;20029;-69
2022/12/28 05:36:05;;;;;;;8.15;4.45;;;;;;;7.05;100.00;101189.56;4997241;28;20030;-69
2022/12/28 05:38:31;;;;;;;7.75;4.20;;;;;;;7.06;100.00;101191.34;4991074;28;20053;-69
2022/12/28 05:41:06;;;;;;;8.75;4.40;;;;;;;7.08;100.00;101191.41;4996048;28;20041;-69
2022/12/28 05:43:32;;;;;;;8.73;4.07;;;;;;;7.10;100.00;101201.03;4991162;28;20026;-69
2022/12/28 05:46:03;;;;;;;8.13;4.13;;;;;;;7.11;100.00;101189.88;4992804;28;20068;-69
2022/12/28 05:48:31;;;;;;;8.48;4.25;;;;;;;7.11;100.00;101192.44;4992357;28;20025;-69
2022/12/28 05:51:04;;;;;;;8.43;4.03;;;;;;;7.13;100.00;101192.50;4999210;28;20041;-69
2022/12/28 05:53:30;;;;;;;6.90;3.70;;;;;;;7.14;100.00;101182.22;4984210;28;20320;-69
2022/12/28 05:56:06;;;;;;;7.07;4.07;;;;;;;7.14;100.00;101187.41;4982917;28;20030;-69
2022/12/28 05:58:32;;;;;;;7.22;4.05;;;;;;;7.16;100.00;101176.22;4981762;28;20025;-69
2022/12/28 06:01:15;;;;;;;7.82;3.75;;;;;;;7.19;100.00;101178.94;4981523;28;20026;-70
2022/12/28 06:03:41;;;;;;;6.57;3.75;;;;;;;7.19;100.00;101172.03;4982447;28;20170;-69
2022/12/28 06:06:11;;;;;;;7.40;3.50;;;;;;;7.21;100.00;101166.91;4985474;28;20285;-69
2022/12/28 06:08:37;;;;;;;7.03;3.83;;;;;;;7.22;100.00;101159.22;4982496;28;20105;-69
2022/12/28 06:11:05;;;;;;;7.68;3.70;;;;;;;7.22;100.00;101159.22;4982792;28;20015;-68
2022/12/28 06:13:31;;;;;;;6.45;3.63;;;;;;;7.23;100.00;101161.00;4981186;28;20097;-69
2022/12/28 06:15:57;;;;;;;7.45;3.80;;;;;;;7.23;100.00;101150.63;4981493;28;20114;-69
2022/12/28 06:18:23;;;;;;;6.50;3.90;;;;;;;7.24;100.00;101156.69;4986989;28;20116;-69
2022/12/28 06:20:49;;;;;;;7.35;3.75;;;;;;;7.26;100.00;101144.69;4985805;28;20253;-69
2022/12/28 06:23:14;;;;;;;6.53;3.50;;;;;;;7.27;100.00;101149.03;4997148;28;20038;-69
2022/12/28 06:25:39;;;;;;;6.15;3.58;;;;;;;7.27;100.00;101147.34;4990880;28;20042;-69
2022/12/28 06:28:05;;;;;;;7.15;3.72;;;;;;;7.28;100.00;101149.09;4997508;28;20042;-69
2022/12/28 06:30:30;;;;;;;7.95;3.67;;;;;;;7.29;100.00;101139.63;4994956;28;20053;-69
2022/12/28 06:32:56;;;;;;;6.88;3.60;;;;;;;7.30;100.00;101147.47;4994778;28;20265;-69
2022/12/28 06:35:21;;;;;;;6.13;3.28;;;;;;;7.30;100.00;101136.22;4992685;28;20031;-69
2022/12/28 06:37:47;;;;;;;6.47;3.80;;;;;;;7.31;100.00;101138.88;4999016;28;20024;-63
2022/12/28 06:40:13;;;;;;;7.18;4.10;;;;;;;7.31;100.00;101132.78;5000444;28;20022;-63
2022/12/28 06:42:38;;;;;;;5.65;3.50;;;;;;;7.32;100.00;101131.97;4997147;28;20033;-64
2022/12/28 06:45:04;;;;;;;6.93;3.70;;;;;;;7.35;100.00;101131.22;4994098;28;20018;-64
2022/12/28 06:47:29;;;;;;;6.25;3.70;;;;;;;7.34;100.00;101135.50;4995903;28;20101;-63
2022/12/28 06:49:55;;;;;;;5.60;3.65;;;;;;;7.34;100.00;101132.03;4998575;28;20026;-63
2022/12/28 06:52:20;;;;;;;6.18;3.42;;;;;;;7.35;100.00;101137.28;4999773;28;20022;-64
2022/12/28 06:54:46;;;;;;;6.35;3.33;;;;;;;7.35;100.00;101123.44;5004893;28;20084;-63
2022/12/28 06:57:12;;;;;;;6.20;3.58;;;;;;;7.37;100.00;101126.97;4997221;28;20070;-64
2022/12/28 06:59:37;;;;;;;6.90;3.75;;;;;;;7.38;100.00;101131.34;4994138;28;20053;-63
2022/12/28 07:02:03;;;;;;;5.20;3.33;;;;;;;7.39;100.00;101125.34;4988798;28;20062;-63
2022/12/28 07:04:28;;;;;;;7.95;3.83;;;;;;;7.40;100.00;101121.91;5001975;28;20299;-63
2022/12/28 07:06:53;;;;;;;6.80;3.80;;;;;;;7.41;100.00;101128.88;4991859;28;20030;-63
2022/12/28 07:09:18;;;;;;;6.82;3.80;;;;;;;7.41;100.00;101128.88;4997495;28;20103;-63
2022/12/28 07:11:44;;;;;;;6.38;3.80;;;;;;;7.42;100.00;101121.16;4993049;28;20146;-63
2022/12/28 07:14:10;;;;;;;7.90;3.92;;;;;;;7.43;100.00;101117.75;4989990;28;20023;-63
2022/12/28 07:16:35;;;;;;;6.57;3.60;;;;;;;7.44;100.00;101109.16;4996693;28;20096;-63
2022/12/28 07:19:01;;;;;;;8.05;3.53;;;;;;;7.44;100.00;101113.44;4992725;28;20022;-64
2022/12/28 07:21:29;;;;;;;7.03;3.58;;;;;;;7.46;100.00;101117.00;5001539;28;20035;-64
2022/12/28 07:23:56;;;;;;;6.90;3.40;;;;;;;7.46;100.00;101123.06;4991849;28;20022;-63
2022/12/28 07:26:24;;;;;;;6.65;3.42;;;;;;;7.46;100.00;101112.69;4989453;28;20197;-64
2022/12/28 07:28:52;;;;;;;6.97;3.50;;;;;;;7.47;100.00;101117.06;4998303;28;20021;-63
2022/12/28 07:31:23;;;;;;;8.07;3.42;;;;;;;7.49;100.00;101111.94;4996233;28;20018;-63
2022/12/28 07:33:50;;;;;;;6.35;3.40;;;;;;;7.48;100.00;101111.03;5000296;28;20249;-63
2022/12/28 07:36:18;;;;;;;6.88;3.35;;;;;;;7.51;100.00;101114.59;5003689;28;20077;-68
2022/12/28 07:38:43;;;;;;;7.05;3.53;;;;;;;7.51;100.00;101112.00;4996243;28;20046;-69
2022/12/28 07:41:14;;;;;;;6.45;3.10;;;;;;;7.49;100.00;101118.00;4988578;28;20041;-68
2022/12/28 07:43:40;;;;;;;7.03;3.72;;;;;;;7.52;100.00;101111.16;4991578;28;20082;-69
2022/12/28 07:46:09;;;;;;;7.47;3.20;;;;;;;7.53;100.00;101108.66;4992821;28;20070;-68
2022/12/28 07:48:36;;;;;;;6.03;3.10;;;;;;;7.54;100.00;101115.56;4994183;28;20010;-69
2022/12/28 07:51:20;;;;;;;5.25;3.00;;;;;;;7.55;100.00;101121.66;4985952;28;20348;-69
2022/12/28 07:53:47;;;;;;;6.45;3.25;;;;;;;7.56;100.00;101124.31;4987044;28;20126;-69
2022/12/28 07:56:13;;;;;;;6.55;3.30;;;;;;;7.56;100.00;101121.72;4984622;28;20026;-69
2022/12/28 07:58:39;;;;;;;7.10;3.30;;;;;;;7.58;100.00;101117.47;4993202;28;20049;-69
2022/12/28 08:01:11;;;;;;;6.57;3.08;;;;;;;7.60;100.00;101125.31;4992754;28;20113;-69
2022/12/28 08:03:38;;;;;;;5.85;3.30;;;;;;;7.61;100.00;101112.41;4987959;28;20038;-69
2022/12/28 08:06:05;;;;;;;7.25;3.50;;;;;;;7.61;100.00;101122.78;4994099;28;20065;-69
2022/12/28 08:08:36;;;;;;;6.35;3.35;;;;;;;7.63;100.00;101115.06;4997174;28;20022;-69
2022/12/28 08:11:06;;;;;;;6.15;3.10;;;;;;;7.63;100.00;101120.25;4994982;28;20188;-69
2022/12/28 08:13:33;;;;;;;7.00;3.20;;;;;;;7.62;100.00;101119.38;4992731;28;20102;-69
2022/12/28 08:15:59;;;;;;;6.90;3.50;;;;;;;7.65;100.00;101118.63;4997429;28;20082;-68
2022/12/28 08:18:24;;;;;;;7.07;3.67;;;;;;;7.66;100.00;101115.19;4988542;28;20030;-69
2022/12/28 08:20:50;;;;;;;6.55;3.50;;;;;;;7.67;100.00;101116.97;4989299;28;20256;-69
2022/12/28 08:23:15;;;;;;;6.93;3.35;;;;;;;7.69;100.00;101115.31;4997256;28;20327;-70
2022/12/28 08:25:40;;;;;;;7.72;3.72;;;;;;;7.70;100.00;101114.47;4993845;28;20216;-68
2022/12/28 08:28:05;;;;;;;7.13;3.28;;;;;;;7.70;100.00;101114.47;4998007;28;20160;-68
2022/12/28 08:30:31;;;;;;;5.97;3.60;;;;;;;7.72;100.00;101106.75;4991300;28;20033;-69
2022/12/28 08:32:56;;;;;;;7.68;3.63;;;;;;;7.72;100.00;101115.44;4997792;28;20050;-69
2022/12/28 08:35:21;;;;;;;9.73;4.00;;;;;;;7.74;100.00;101106.00;4999259;28;20049;-69
2022/12/28 08:37:46;;;;;;;9.25;4.22;;;;;;;7.75;100.00;101104.28;5000186;28;20462;-69
2022/12/28 08:40:12;;;;;;;7.82;3.88;;;;;;;7.76;100.00;101093.09;4989365;28;20014;-69
2022/12/28 08:42:37;;;;;;;6.85;3.90;;;;;;;7.76;100.00;101096.59;4996050;28;20193;-69
2022/12/28 08:45:02;;;;;;;8.48;3.85;;;;;;;7.76;100.00;101101.78;5000320;28;20018;-69
2022/12/28 08:47:28;;;;;;;7.45;3.50;;;;;;;7.79;100.00;101090.59;4982777;28;20185;-69
2022/12/28 08:49:53;;;;;;;9.38;3.88;;;;;;;7.79;100.00;101099.28;4983237;28;20173;-69
2022/12/28 08:52:18;;;;;;;7.25;3.63;;;;;;;7.80;100.00;101101.03;4983992;28;20026;-69
2022/12/28 08:54:43;;;;;;;9.13;3.80;;;;;;;7.80;100.00;101102.75;4985106;28;20023;-69
2022/12/28 08:57:09;;;;;;;8.13;3.95;;;;;;;7.80;100.00;101108.81;4989294;28;20025;-69
2022/12/28 08:59:34;;;;;;;10.80;3.90;;;;;;;7.79;100.00;101104.50;4986239;28;20030;-69
2022/12/28 09:01:59;;;;;;;8.02;3.85;;;;;;;7.81;100.00;101094.16;4995170;28;20058;-69
2022/12/28 09:04:25;;;;;;;6.97;3.75;;;;;;;7.81;100.00;101094.16;4988546;28;20038;-69
2022/12/28 09:06:50;;;;;;;6.97;3.22;;;;;;;7.83;100.00;101102.88;4983641;28;20037;-69
2022/12/28 09:09:18;;;;;;;6.95;3.78;;;;;;;7.81;100.00;101096.75;4985508;28;20015;-69
2022/12/28 09:11:44;;;;;;;6.82;4.20;;;;;;;7.82;100.00;101099.41;4983446;28;20292;-69
2022/12/28 09:14:11;;;;;;;10.20;3.85;;;;;;;7.81;100.00;101100.22;4986333;28;20026;-69
2022/12/28 09:16:38;;;;;;;5.60;3.90;;;;;;;7.80;100.00;101098.44;4983628;28;21193;-69
2022/12/28 09:19:06;;;;;;;8.88;3.67;;;;;;;7.81;100.00;101094.16;4984453;28;20054;-69
2022/12/28 09:21:34;;;;;;;7.77;3.90;;;;;;;7.82;100.00;101107.19;4983201;28;20015;-69
2022/12/28 09:24:00;;;;;;;5.78;3.53;;;;;;;7.82;100.00;101108.88;4997182;28;20049;-69
2022/12/28 09:26:28;;;;;;;8.48;3.75;;;;;;;7.83;100.00;101101.19;5006650;28;20021;-70
2022/12/28 09:28:59;;;;;;;6.05;3.50;;;;;;;7.83;100.00;101108.97;5016776;28;20024;-69
2022/12/28 09:31:27;;;;;;;7.55;3.50;;;;;;;7.85;100.00;101106.44;5006062;28;20184;-69
2022/12/28 09:34:02;;;;;;;6.68;3.70;;;;;;;7.86;100.00;101103.00;5002973;28;20292;-69
2022/12/28 09:36:31;;;;;;;9.93;3.55;;;;;;;7.87;100.00;101098.72;4993526;28;20054;-69
2022/12/28 09:38:58;;;;;;;9.02;3.85;;;;;;;7.88;100.00;101095.25;5003922;28;20018;-69
2022/12/28 09:41:58;;;;;;;8.50;3.97;;;;;;;7.89;100.00;101103.09;5003532;28;20049;-69
2022/12/28 09:44:42;;;;;;;9.48;4.72;;;;;;;7.93;100.00;101104.13;4981371;28;20285;-69
2022/12/28 09:47:32;;;;;;;8.70;4.68;;;;;;;7.96;100.00;101104.25;5000446;28;20049;-69
2022/12/28 09:50:16;;;;;;;10.07;5.47;;;;;;;7.98;100.00;101097.38;5003698;28;20038;-69
2022/12/28 09:53:03;;;;;;;7.78;5.35;;;;;;;8.00;100.00;101106.13;5004112;28;20273;-69
2022/12/28 09:55:30;;;;;;;7.82;4.68;;;;;;;8.01;100.00;101097.53;5007407;28;20026;-69
2022/12/28 09:57:57;;;;;;;5.63;3.40;;;;;;;8.03;100.00;101090.69;4995854;28;20022;-69
2022/12/28 10:00:27;;;;;;;5.38;2.85;;;;;;;8.03;100.00;101108.84;4995564;28;20031;-69
2022/12/28 10:03:00;;;;;;;4.63;2.80;;;;;;;8.03;100.00;101095.88;4992585;28;20261;-70
2022/12/28 10:05:28;;;;;;;4.35;2.33;;;;;;;8.05;100.00;101089.00;5004467;28;20280;-69
2022/12/28 10:07:56;;;;;;;6.38;2.60;;;;;;;8.06;100.00;101095.97;4994411;28;20034;-70
2022/12/28 10:10:22;;;;;;;4.90;2.50;;;;;;;8.07;100.00;101089.97;4992836;28;20280;-70
2022/12/28 10:12:49;;;;;;;5.10;2.90;;;;;;;8.08;100.00;101096.03;5000978;28;20038;-70
2022/12/28 10:15:15;;;;;;;5.78;2.60;;;;;;;8.08;100.00;101088.25;4994596;28;20023;-69
2022/12/28 10:17:41;;;;;;;5.72;2.70;;;;;;;8.08;100.00;101083.97;4997373;28;20054;-70
2022/12/28 10:20:17;;;;;;;5.88;2.83;;;;;;;8.08;100.00;101085.66;5009726;28;20027;-70
2022/12/28 10:22:46;;;;;;;4.97;2.65;;;;;;;8.07;100.00;101082.19;4990614;28;20360;-70
2022/12/28 10:25:15;;;;;;;4.53;2.63;;;;;;;8.07;100.00;101079.59;4991641;28;20014;-70
2022/12/28 10:27:41;;;;;;;5.07;2.55;;;;;;;8.08;100.00;101077.88;4994002;28;20033;-70
2022/12/28 10:30:26;;;;;;;5.00;2.70;;;;;;;8.09;100.00;101080.50;5003449;28;20026;-70
2022/12/28 10:32:54;;;;;;;6.00;2.90;;;;;;;8.11;100.00;101077.97;5004306;28;20031;-70
2022/12/28 10:35:26;;;;;;;4.13;2.65;;;;;;;8.10;100.00;101071.91;5003925;28;20022;-70
2022/12/28 10:38:17;;;;;;;4.82;2.70;;;;;;;8.11;100.00;101068.50;4993932;28;20027;-65
2022/12/28 10:40:42;;;;;;;5.03;2.58;;;;;;;8.12;100.00;101075.44;4993434;28;20034;-65
2022/12/28 10:43:18;;;;;;;5.13;2.70;;;;;;;8.12;100.00;101070.25;4999509;28;20030;-65
2022/12/28 10:45:50;;;;;;;6.18;2.90;;;;;;;8.13;100.00;101069.44;4998031;28;20062;-65
2022/12/28 10:48:29;;;;;;;5.15;2.88;;;;;;;8.14;100.00;101071.22;5003494;28;20318;-65
2022/12/28 10:50:59;;;;;;;5.40;2.90;;;;;;;8.16;100.00;101071.25;5003175;28;20032;-65
2022/12/28 10:53:54;;;;;;;6.25;3.20;;;;;;;8.15;100.00;101062.59;4998981;28;20081;-65
2022/12/28 10:56:30;;;;;;;5.78;3.00;;;;;;;8.15;100.00;101052.22;5001271;28;20197;-64
2022/12/28 10:59:18;;;;;;;7.85;3.47;;;;;;;8.17;100.00;101067.84;4994550;28;20216;-64
2022/12/28 11:01:43;;;;;;;8.98;5.13;;;;;;;8.16;100.00;101053.97;5003076;28;20037;-65
2022/12/28 11:04:20;;;;;;;4.80;2.78;;;;;;;8.17;100.00;101057.47;5004608;28;20022;-65
2022/12/28 11:06:55;;;;;;;6.05;2.85;;;;;;;8.17;100.00;101060.94;5003236;28;20025;-65
2022/12/28 11:09:25;;;;;;;5.53;2.88;;;;;;;8.19;100.00;101061.00;5007157;28;20029;-65
2022/12/28 11:11:53;;;;;;;8.45;3.38;;;;;;;8.18;100.00;101052.31;5007131;28;20064;-65
2022/12/28 11:14:33;;;;;;;5.60;3.03;;;;;;;8.20;100.00;101047.19;5007771;28;20038;-65
2022/12/28 11:17:20;;;;;;;6.47;3.10;;;;;;;8.22;100.00;101055.03;5001761;28;20073;-65
2022/12/28 11:19:49;;;;;;;4.80;2.78;;;;;;;8.24;100.00;101040.38;5002833;28;20033;-65
2022/12/28 11:22:21;;;;;;;5.18;3.05;;;;;;;8.24;100.00;101041.28;5011221;28;20276;-65
2022/12/28 11:24:46;;;;;;;5.22;3.10;;;;;;;8.25;100.00;101029.19;5005937;28;20026;-65
2022/12/28 11:27:17;;;;;;;4.93;2.92;;;;;;;8.24;100.00;101027.41;5007059;28;20029;-65
2022/12/28 11:29:46;;;;;;;6.10;2.88;;;;;;;8.26;100.00;101023.16;5006652;28;20030;-65
2022/12/28 11:32:29;;;;;;;5.68;3.05;;;;;;;8.27;100.00;101020.63;5007816;28;20117;-65
2022/12/28 11:34:56;;;;;;;6.47;3.33;;;;;;;8.28;100.00;101019.78;5012903;28;20085;-64
2022/12/28 11:37:22;;;;;;;5.93;2.92;;;;;;;8.29;100.00;101012.88;5001030;28;20077;-64
2022/12/28 11:39:49;;;;;;;6.35;2.92;;;;;;;8.30;100.00;101006.88;5003496;28;20319;-65
2022/12/28 11:42:33;;;;;;;5.93;2.95;;;;;;;8.31;100.00;101004.34;4998937;28;20172;-66
2022/12/28 11:45:00;;;;;;;7.45;2.83;;;;;;;8.31;100.00;101009.53;5001973;28;20030;-65
2022/12/28 11:47:32;;;;;;;5.97;2.83;;;;;;;8.32;100.00;101005.22;4992835;28;20062;-66
2022/12/28 11:50:41;;;;;;;16.52;9.50;;;;;;;8.34;100.00;100998.34;4994363;28;20079;-65
2022/12/28 11:53:31;;;;;;;6.07;3.22;;;;;;;8.34;100.00;100994.06;4993208;28;20361;-65
2022/12/28 11:56:07;;;;;;;6.28;3.30;;;;;;;8.35;100.00;100994.94;4993616;28;20019;-65
2022/12/28 11:58:39;;;;;;;9.50;4.75;;;;;;;8.34;100.00;100982.75;4992713;28;20034;-65
2022/12/28 12:01:08;;;;;;;7.60;4.00;;;;;;;8.34;100.00;100967.19;5004338;28;20024;-65